Dukat — LK2965 — position and weather

sailwx.info

Track history (hours):
 
Tides and Currents Weather Stations Pressure Air Temp Water Temp Dewpoint Dewpoint Depression Visibility Wind Speed Wind Dir Waves Ship Positions

Dukat

Last reported at 2017-Nov-16 09:05 UTC. Time now 2017-Dec-12 10:24 UTC.
Position N 70°38' E 029°43'.
Warning: this ship's position is 26 days out of date.

Length 10 m.

Type: Fishing. MMSI: 257143420.

Date/timePositionNaut miles runAvg speedWind from/ knotsBaromVisibWave heightAir tempDewpointWater temp
2017-Nov-16 09:05N 70°38' E 029°43'0 0.0
2017-Nov-16 08:59N 70°38' E 029°43'0 0.0
2017-Nov-16 08:29N 70°38' E 029°43'0 0.0
2017-Nov-16 07:59N 70°38' E 029°43'0 0.0
2017-Nov-16 07:29N 70°38' E 029°43'0 0.0
2017-Nov-16 06:59N 70°38' E 029°43'0 0.0
2017-Nov-16 06:29N 70°38' E 029°43'0 0.1
2017-Nov-16 05:58N 70°38' E 029°43'0 0.0
2017-Nov-16 05:28N 70°38' E 029°43'0 0.0
2017-Nov-16 04:58N 70°38' E 029°43'0 0.0
2017-Nov-16 04:28N 70°38' E 029°43'0 0.0
2017-Nov-16 03:58N 70°38' E 029°43'0 0.0
2017-Nov-16 03:28N 70°38' E 029°43'0 0.0
2017-Nov-16 02:58N 70°38' E 029°43'0 0.0
2017-Nov-16 02:28N 70°38' E 029°43'0 0.0
2017-Nov-16 01:58N 70°38' E 029°43'0 0.0
2017-Nov-16 01:28N 70°38' E 029°43'0 0.0
2017-Nov-16 00:58N 70°38' E 029°43'0 0.0
2017-Nov-16 00:25N 70°38' E 029°43'0 0.0
2017-Nov-15 23:58N 70°38' E 029°43'0 0.0
2017-Nov-15 23:28N 70°38' E 029°43'0 0.0
2017-Nov-15 22:58N 70°38' E 029°43'0 0.0
2017-Nov-15 22:28N 70°38' E 029°43'0 0.0
2017-Nov-15 21:58N 70°38' E 029°43'0 0.0
2017-Nov-15 21:28N 70°38' E 029°43'0 0.0
2017-Nov-15 20:58N 70°38' E 029°43'0 0.0
2017-Nov-15 20:28N 70°38' E 029°43'0 0.0
2017-Nov-15 19:58N 70°38' E 029°43'2 4.6
2017-Nov-15 19:30N 70°39' E 029°48'4 7.8
2017-Nov-15 19:00N 70°42' E 029°56'4 8.0
2017-Nov-15 18:30N 70°45' E 030°04'4 7.5
2017-Nov-15 17:59N 70°47' E 030°13'0 0.2
2017-Nov-15 17:30N 70°47' E 030°14'0 0.9
2017-Nov-15 17:00N 70°48' E 030°13'0 0.6
2017-Nov-15 16:29N 70°48' E 030°12'0 0.9
2017-Nov-15 16:00N 70°48' E 030°11'1 1.1
2017-Nov-15 15:29N 70°48' E 030°09'1 1.1
2017-Nov-15 15:00N 70°49' E 030°08'1 1.1
2017-Nov-15 14:30N 70°49' E 030°06'1 1.2
2017-Nov-15 14:01N 70°49' E 030°05'1 1.0
2017-Nov-15 13:30N 70°49' E 030°03'0 0.9
2017-Nov-15 13:00N 70°50' E 030°02'1 1.2
2017-Nov-15 12:30N 70°50' E 030°01'1 1.4
2017-Nov-15 12:00N 70°50' E 029°59'1 1.4
2017-Nov-15 11:29N 70°51' E 029°57'1 1.6
2017-Nov-15 11:00N 70°51' E 029°55'0 0.2
2017-Nov-15 10:30N 70°51' E 029°54'2 4.5
2017-Nov-15 09:59N 70°48' E 029°53'4 8.1
2017-Nov-15 09:30N 70°44' E 029°52'4 8.0
2017-Nov-15 09:00N 70°41' E 029°50'3 6.9
2017-Nov-15 08:29N 70°38' E 029°43'0 0.0
2017-Nov-15 07:59N 70°38' E 029°43'0 0.0
2017-Nov-15 07:29N 70°38' E 029°43'0 0.0
2017-Nov-15 06:59N 70°38' E 029°43'0 0.0
2017-Nov-15 06:29N 70°38' E 029°43'0 0.0
2017-Nov-15 05:59N 70°38' E 029°43'0 0.0
2017-Nov-15 05:29N 70°38' E 029°43'0 0.0
2017-Nov-15 04:59N 70°38' E 029°43'0 0.0
2017-Nov-15 04:29N 70°38' E 029°43'0 0.0
2017-Nov-15 03:59N 70°38' E 029°43'0 0.0
2017-Nov-15 03:29N 70°38' E 029°43'0 0.0
2017-Nov-15 02:59N 70°38' E 029°43'0 0.0
2017-Nov-15 02:30N 70°38' E 029°43'4 6.9
2017-Nov-15 01:59N 70°40' E 029°51'4 7.8
2017-Nov-15 01:30N 70°43' E 029°58'4 7.6
2017-Nov-15 01:00N 70°45' E 030°07'3 5.5
2017-Nov-15 00:29N 70°47' E 030°14'2 4.5
2017-Nov-14 23:59N 70°48' E 030°08'2 4.3
2017-Nov-14 23:30N 70°49' E 030°02'2 4.3
2017-Nov-14 23:00N 70°50' E 029°57'2 3.1
2017-Nov-14 22:30N 70°51' E 029°52'3 6.3
2017-Nov-14 22:00N 70°47' E 029°52'4 7.6
2017-Nov-14 21:30N 70°44' E 029°51'4 7.6
2017-Nov-14 21:00N 70°40' E 029°50'3 5.8
2017-Nov-14 20:30N 70°38' E 029°43'0 0.0
2017-Nov-14 20:00N 70°38' E 029°43'0 0.4
2017-Nov-14 19:29N 70°38' E 029°44'1 3.0
2017-Nov-14 19:00N 70°39' E 029°47'4 7.8
2017-Nov-14 18:30N 70°42' E 029°55'4 7.6
2017-Nov-14 18:00N 70°44' E 030°04'4 7.9
2017-Nov-14 17:29N 70°46' E 030°14'2 3.1
2017-Nov-14 17:00N 70°47' E 030°19'0 0.9
2017-Nov-14 16:30N 70°46' E 030°20'0 0.8
2017-Nov-14 16:00N 70°46' E 030°21'1 2.7
2017-Nov-14 15:30N 70°47' E 030°18'0 0.4
2017-Nov-14 14:59N 70°47' E 030°18'1 1.3
2017-Nov-14 14:29N 70°47' E 030°17'0 0.9
2017-Nov-14 14:00N 70°48' E 030°16'1 1.0
2017-Nov-14 13:30N 70°48' E 030°14'1 1.2
2017-Nov-14 13:00N 70°48' E 030°13'1 1.3
2017-Nov-14 12:30N 70°48' E 030°11'1 1.1
2017-Nov-14 12:00N 70°49' E 030°10'1 1.3
2017-Nov-14 11:30N 70°49' E 030°08'1 1.3
2017-Nov-14 10:59N 70°49' E 030°06'1 1.3
2017-Nov-14 10:29N 70°50' E 030°04'1 1.1
2017-Nov-14 09:59N 70°50' E 030°03'2 4.5
2017-Nov-14 09:30N 70°48' E 029°59'4 8.0
2017-Nov-14 08:59N 70°44' E 029°53'4 7.7
2017-Nov-14 08:30N 70°41' E 029°50'4 7.0
2017-Nov-14 07:59N 70°38' E 029°43'0 0.0
2017-Nov-14 07:29N 70°38' E 029°43'0 0.0
2017-Nov-14 06:59N 70°38' E 029°43'0 0.0
2017-Nov-14 06:29N 70°38' E 029°43'0 0.0
2017-Nov-14 05:58N 70°38' E 029°43'0 0.0
2017-Nov-14 05:28N 70°38' E 029°43'0 0.0
2017-Nov-14 04:58N 70°38' E 029°43'0 0.0
2017-Nov-14 04:28N 70°38' E 029°43'0 0.0
2017-Nov-14 03:58N 70°38' E 029°43'0 0.0
2017-Nov-14 03:28N 70°38' E 029°43'0 0.0
2017-Nov-14 02:58N 70°38' E 029°43'0 0.0
2017-Nov-14 02:28N 70°38' E 029°43'0 0.0
2017-Nov-14 02:00N 70°38' E 029°43'3 6.6
2017-Nov-14 01:30N 70°40' E 029°50'4 7.7
2017-Nov-14 01:00N 70°43' E 029°58'4 7.6
2017-Nov-14 00:30N 70°44' E 030°09'4 7.7
2017-Nov-14 00:00N 70°46' E 030°20'1 2.1
2017-Nov-13 23:30N 70°47' E 030°18'2 4.3
2017-Nov-13 23:00N 70°48' E 030°12'2 4.4
2017-Nov-13 22:30N 70°49' E 030°06'2 4.5
2017-Nov-13 22:00N 70°50' E 030°00'14 0.7
2017-Nov-13 02:00N 70°38' E 029°43'0 0.0
2017-Nov-13 01:30N 70°38' E 029°43'0 0.0
2017-Nov-13 01:00N 70°38' E 029°43'0 0.0
2017-Nov-13 00:30N 70°38' E 029°43'0 0.0
2017-Nov-13 00:00N 70°38' E 029°43'0 0.0
2017-Nov-12 23:30N 70°38' E 029°43'0 0.0
2017-Nov-12 23:00N 70°38' E 029°43'0 0.8
2017-Nov-12 22:31N 70°38' E 029°44'4 7.9
2017-Nov-12 21:59N 70°41' E 029°52'4 7.8
2017-Nov-12 21:30N 70°44' E 029°60'4 7.7
2017-Nov-12 20:59N 70°47' E 030°08'4 7.6
2017-Nov-12 20:30N 70°49' E 030°17'4 7.0
2017-Nov-12 19:59N 70°52' E 030°24'3 6.7
2017-Nov-12 19:29N 70°54' E 030°32'3 6.8
2017-Nov-12 19:00N 70°56' E 030°39'2 1.5
2017-Nov-12 17:57N 70°57' E 030°43'2 5.4
2017-Nov-12 17:30N 70°55' E 030°39'3 5.3
2017-Nov-12 17:00N 70°53' E 030°34'3 5.4
2017-Nov-12 16:30N 70°51' E 030°30'2 4.9
2017-Nov-12 16:00N 70°49' E 030°24'4 8.4
2017-Nov-12 15:29N 70°47' E 030°13'4 7.9
2017-Nov-12 15:00N 70°44' E 030°04'4 7.9
2017-Nov-12 14:30N 70°42' E 029°55'4 8.0
2017-Nov-12 14:00N 70°39' E 029°47'2 3.2
2017-Nov-12 13:28N 70°38' E 029°43'0 0.0
2017-Nov-12 12:57N 70°38' E 029°43'0 0.0
2017-Nov-12 12:28N 70°38' E 029°43'1 1.4
2017-Nov-12 11:58N 70°37' E 029°42'0 0.0
2017-Nov-12 11:28N 70°37' E 029°42'0 0.0
2017-Nov-12 10:58N 70°37' E 029°42'0 0.0
2017-Nov-12 10:28N 70°37' E 029°42'0 0.0
2017-Nov-12 09:58N 70°37' E 029°42'0 0.0
2017-Nov-12 09:28N 70°37' E 029°42'0 0.0
2017-Nov-12 08:58N 70°37' E 029°42'0 0.0
2017-Nov-12 08:28N 70°37' E 029°42'0 0.0
2017-Nov-12 07:58N 70°37' E 029°42'0 0.0
2017-Nov-12 07:28N 70°37' E 029°42'0 0.6
2017-Nov-12 07:00N 70°37' E 029°42'0 0.4
2017-Nov-12 06:30N 70°38' E 029°42'0 0.0
2017-Nov-12 06:00N 70°38' E 029°42'0 0.0
2017-Nov-12 05:30N 70°38' E 029°42'0 0.0
2017-Nov-12 05:00N 70°38' E 029°42'0 0.0
2017-Nov-12 04:30N 70°38' E 029°42'0 0.0
2017-Nov-12 04:00N 70°38' E 029°42'0 0.0
2017-Nov-12 03:30N 70°38' E 029°42'0 0.0
2017-Nov-12 03:00N 70°38' E 029°42'0 0.0
2017-Nov-12 02:30N 70°38' E 029°42'0 0.0
2017-Nov-12 02:00N 70°38' E 029°42'0 0.0
2017-Nov-12 01:30N 70°38' E 029°42'0 0.0
2017-Nov-12 01:00N 70°38' E 029°42'0 0.0
2017-Nov-12 00:30N 70°38' E 029°42'0 0.0
2017-Nov-12 00:00N 70°38' E 029°42'0 0.0
2017-Nov-11 23:30N 70°38' E 029°42'0 0.0
2017-Nov-11 23:00N 70°38' E 029°42'0 0.0
2017-Nov-11 22:30N 70°38' E 029°42'0 0.0
2017-Nov-11 22:00N 70°38' E 029°42'0 0.0
2017-Nov-11 21:30N 70°38' E 029°42'0 0.0
2017-Nov-11 21:00N 70°38' E 029°42'0 0.0
2017-Nov-11 20:30N 70°38' E 029°42'0 0.0
2017-Nov-11 19:58N 70°38' E 029°42'0 0.0
2017-Nov-11 19:28N 70°38' E 029°42'0 0.0
2017-Nov-11 18:58N 70°38' E 029°42'0 0.0
2017-Nov-11 18:28N 70°38' E 029°42'0 0.0
2017-Nov-11 17:58N 70°38' E 029°42'0 0.0
2017-Nov-11 17:28N 70°38' E 029°42'0 0.0
2017-Nov-11 16:58N 70°38' E 029°42'0 0.0
2017-Nov-11 16:28N 70°38' E 029°42'0 0.8
2017-Nov-11 15:57N 70°38' E 029°43'0 0.0
2017-Nov-11 15:27N 70°38' E 029°43'0 0.0
2017-Nov-11 14:57N 70°38' E 029°43'2 4.8
2017-Nov-11 14:30N 70°39' E 029°48'3 6.8
2017-Nov-11 13:59N 70°42' E 029°54'3 6.1
2017-Nov-11 13:29N 70°44' E 030°01'3 6.2
2017-Nov-11 13:00N 70°45' E 030°09'3 6.3
2017-Nov-11 12:30N 70°47' E 030°18'3 6.1
2017-Nov-11 12:00N 70°48' E 030°26'2 4.5
2017-Nov-11 11:29N 70°50' E 030°31'0 0.5
2017-Nov-11 11:00N 70°50' E 030°31'0 0.3
2017-Nov-11 10:29N 70°50' E 030°30'0 0.7
2017-Nov-11 10:00N 70°50' E 030°31'1 1.3
2017-Nov-11 09:30N 70°50' E 030°33'1 1.1
2017-Nov-11 08:59N 70°51' E 030°34'0 0.8
2017-Nov-11 08:31N 70°51' E 030°35'1 1.1
2017-Nov-11 07:59N 70°52' E 030°36'0 1.0
2017-Nov-11 07:30N 70°52' E 030°37'1 1.2
2017-Nov-11 06:59N 70°53' E 030°37'1 1.1
2017-Nov-11 06:30N 70°53' E 030°38'1 1.3
2017-Nov-11 06:00N 70°54' E 030°39'1 1.1
2017-Nov-11 05:30N 70°54' E 030°40'1 1.2
2017-Nov-11 05:00N 70°55' E 030°41'1 1.3
2017-Nov-11 04:29N 70°55' E 030°42'1 1.2
2017-Nov-11 04:00N 70°56' E 030°43'1 1.2
2017-Nov-11 03:30N 70°56' E 030°44'1 1.0
2017-Nov-11 03:00N 70°56' E 030°45'0 0.0
2017-Nov-10 17:32N 70°56' E 030°46'0 5.5
2017-Nov-10 17:29N 70°56' E 030°46'3 5.6
2017-Nov-10 17:00N 70°54' E 030°40'3 5.6
2017-Nov-10 16:30N 70°52' E 030°35'3 5.2
2017-Nov-10 16:00N 70°50' E 030°30'2 5.0
2017-Nov-10 15:30N 70°49' E 030°22'4 7.9
2017-Nov-10 15:00N 70°48' E 030°11'4 8.1
2017-Nov-10 14:30N 70°45' E 030°03'4 8.3
2017-Nov-10 14:00N 70°42' E 029°54'4 8.3
2017-Nov-10 13:30N 70°39' E 029°47'2 2.9
2017-Nov-10 12:59N 70°38' E 029°43'0 0.2
2017-Nov-10 12:30N 70°38' E 029°43'1 1.0
2017-Nov-10 11:59N 70°38' E 029°44'0 0.0
2017-Nov-10 11:30N 70°38' E 029°44'0 0.0
2017-Nov-10 10:59N 70°38' E 029°44'0 0.0
2017-Nov-10 10:29N 70°38' E 029°44'0 0.0
2017-Nov-10 09:59N 70°38' E 029°44'0 0.0
2017-Nov-10 09:30N 70°38' E 029°44'0 0.0
2017-Nov-10 09:00N 70°38' E 029°44'0 0.0
2017-Nov-10 08:30N 70°38' E 029°44'0 0.0
2017-Nov-10 08:00N 70°38' E 029°44'0 0.0
2017-Nov-10 07:29N 70°38' E 029°44'0 0.0
2017-Nov-10 06:59N 70°38' E 029°44'1 1.9
2017-Nov-10 06:30N 70°38' E 029°42'0 0.0
2017-Nov-10 06:00N 70°38' E 029°42'0 0.0
2017-Nov-10 05:30N 70°38' E 029°42'0 0.0
2017-Nov-10 05:00N 70°38' E 029°42'0 0.0
2017-Nov-10 04:30N 70°38' E 029°42'0 0.0
2017-Nov-10 04:00N 70°38' E 029°42'0 0.0
2017-Nov-10 03:30N 70°38' E 029°42'0 0.0
2017-Nov-10 03:00N 70°38' E 029°42'0 0.0
2017-Nov-10 02:30N 70°38' E 029°42'0 0.0
2017-Nov-10 02:00N 70°38' E 029°42'0 0.0
2017-Nov-10 01:30N 70°38' E 029°42'0 0.0
2017-Nov-10 01:00N 70°38' E 029°42'0 0.0
2017-Nov-10 00:30N 70°38' E 029°42'0 0.0
2017-Nov-10 00:00N 70°38' E 029°42'0 0.0
2017-Nov-09 23:30N 70°38' E 029°42'0 0.0
2017-Nov-09 23:00N 70°38' E 029°42'0 0.0
2017-Nov-09 22:30N 70°38' E 029°42'0 0.0
2017-Nov-09 21:57N 70°38' E 029°42'0 0.0
2017-Nov-09 21:30N 70°38' E 029°42'0 0.0
2017-Nov-09 21:00N 70°38' E 029°42'0 0.0
2017-Nov-09 20:30N 70°38' E 029°42'0 0.0
2017-Nov-09 20:00N 70°38' E 029°42'0 0.0
2017-Nov-09 19:30N 70°38' E 029°42'0 0.0
2017-Nov-09 19:00N 70°38' E 029°42'0 0.0
2017-Nov-09 18:30N 70°38' E 029°42'0 0.0
2017-Nov-09 18:00N 70°38' E 029°42'0 0.0
2017-Nov-09 17:30N 70°38' E 029°42'0 0.0
2017-Nov-09 17:00N 70°38' E 029°42'0 0.0
2017-Nov-09 16:30N 70°38' E 029°42'0 0.0
2017-Nov-09 16:00N 70°38' E 029°42'0 0.0
2017-Nov-09 15:30N 70°38' E 029°42'0 0.0
2017-Nov-09 15:00N 70°38' E 029°42'0 0.0
2017-Nov-09 14:30N 70°38' E 029°42'0 0.0
2017-Nov-09 14:00N 70°38' E 029°42'0 0.0
2017-Nov-09 13:30N 70°38' E 029°42'0 0.0
2017-Nov-09 13:00N 70°38' E 029°42'0 0.0
2017-Nov-09 12:30N 70°38' E 029°42'0 0.0
2017-Nov-09 12:00N 70°38' E 029°42'0 0.0
2017-Nov-09 11:30N 70°38' E 029°42'0 0.0
2017-Nov-09 11:00N 70°38' E 029°42'0 0.0
2017-Nov-09 10:30N 70°38' E 029°42'0 0.0
2017-Nov-09 10:00N 70°38' E 029°42'0 0.0
2017-Nov-09 09:30N 70°38' E 029°42'0 0.0
2017-Nov-09 09:00N 70°38' E 029°42'0 0.0
2017-Nov-09 08:30N 70°38' E 029°42'0 0.0
2017-Nov-09 08:00N 70°38' E 029°42'0 0.0
2017-Nov-09 07:30N 70°38' E 029°42'0 0.0
2017-Nov-09 07:00N 70°38' E 029°42'0 0.0
2017-Nov-09 06:30N 70°38' E 029°42'0 0.0
2017-Nov-09 06:00N 70°38' E 029°42'0 0.0
2017-Nov-09 05:30N 70°38' E 029°42'0 0.0
2017-Nov-09 05:00N 70°38' E 029°42'0 0.0
2017-Nov-09 04:30N 70°38' E 029°42'0 0.0
2017-Nov-09 04:00N 70°38' E 029°42'0 0.0
2017-Nov-09 03:30N 70°38' E 029°42'0 0.0
2017-Nov-09 03:00N 70°38' E 029°42'0 0.0
2017-Nov-09 02:30N 70°38' E 029°42'0 0.0
2017-Nov-09 02:00N 70°38' E 029°42'0 0.0
2017-Nov-09 01:30N 70°38' E 029°42'0 0.0
2017-Nov-09 01:00N 70°38' E 029°42'0 0.0
2017-Nov-09 00:30N 70°38' E 029°42'0 0.0
2017-Nov-09 00:00N 70°38' E 029°42'0 0.0
2017-Nov-08 23:30N 70°38' E 029°42'0 0.0
2017-Nov-08 23:00N 70°38' E 029°42'0 0.0
2017-Nov-08 22:30N 70°38' E 029°42'0 0.0
2017-Nov-08 22:00N 70°38' E 029°42'0 0.0
2017-Nov-08 21:30N 70°38' E 029°42'0 0.0
2017-Nov-08 21:00N 70°38' E 029°42'0 0.0
2017-Nov-08 20:30N 70°38' E 029°42'0 0.0
2017-Nov-08 20:00N 70°38' E 029°42'0 0.0
2017-Nov-08 19:30N 70°38' E 029°42'0 0.0
2017-Nov-08 19:00N 70°38' E 029°42'0 0.0
2017-Nov-08 18:30N 70°38' E 029°42'0 0.0
2017-Nov-08 18:00N 70°38' E 029°42'0 0.0
2017-Nov-08 17:30N 70°38' E 029°42'0 0.0
2017-Nov-08 17:00N 70°38' E 029°42'0 0.0
2017-Nov-08 16:30N 70°38' E 029°42'0 0.0
2017-Nov-08 16:00N 70°38' E 029°42'0 0.0
2017-Nov-08 15:30N 70°38' E 029°42'0 0.0
2017-Nov-08 15:00N 70°38' E 029°42'0 0.0
2017-Nov-08 14:30N 70°38' E 029°42'0 0.0
2017-Nov-08 14:00N 70°38' E 029°42'0 0.0
2017-Nov-08 13:30N 70°38' E 029°42'0 0.0
2017-Nov-08 13:00N 70°38' E 029°42'0 0.0
2017-Nov-08 12:30N 70°38' E 029°42'0 0.0
2017-Nov-08 12:00N 70°38' E 029°42'0 0.0
2017-Nov-08 11:27N 70°38' E 029°42'0 0.0
2017-Nov-08 11:00N 70°38' E 029°42'0 0.0
2017-Nov-08 10:30N 70°38' E 029°42'0 0.0
2017-Nov-08 10:00N 70°38' E 029°42'0 0.0
2017-Nov-08 09:30N 70°38' E 029°42'0 0.7
2017-Nov-08 09:00N 70°37' E 029°43'3 6.8
2017-Nov-08 08:30N 70°40' E 029°50'0 0.3
2017-Nov-08 08:00N 70°40' E 029°50'2 3.5
2017-Nov-08 07:31N 70°39' E 029°47'2 3.6
2017-Nov-08 07:00N 70°38' E 029°42'0 0.0
2017-Nov-08 06:30N 70°38' E 029°42'0 0.0
2017-Nov-08 06:00N 70°38' E 029°42'0 0.0
2017-Nov-08 05:30N 70°38' E 029°42'0 0.0
2017-Nov-08 05:00N 70°38' E 029°42'0 0.0
2017-Nov-08 04:30N 70°38' E 029°42'0 0.0
2017-Nov-08 04:00N 70°38' E 029°42'0 0.0
2017-Nov-08 03:27N 70°38' E 029°42'0 0.0
2017-Nov-08 03:00N 70°38' E 029°42'0 0.0
2017-Nov-08 02:27N 70°38' E 029°42'0 0.0
2017-Nov-08 02:00N 70°38' E 029°42'0 0.0
2017-Nov-08 01:30N 70°38' E 029°42'0 0.0
2017-Nov-08 01:00N 70°38' E 029°42'0 0.0
2017-Nov-08 00:30N 70°38' E 029°42'0 0.0
2017-Nov-08 00:00N 70°38' E 029°42'0 0.0
2017-Nov-07 23:30N 70°38' E 029°42'0 0.0
2017-Nov-07 23:00N 70°38' E 029°42'0 0.0
2017-Nov-07 22:30N 70°38' E 029°42'0 0.0
2017-Nov-07 22:00N 70°38' E 029°42'0 0.0
2017-Nov-07 21:30N 70°38' E 029°42'0 0.0
2017-Nov-07 21:00N 70°38' E 029°42'0 0.0
2017-Nov-07 20:30N 70°38' E 029°42'0 0.0
2017-Nov-07 20:00N 70°38' E 029°42'0 0.0
2017-Nov-07 19:30N 70°38' E 029°42'0 0.0
2017-Nov-07 18:57N 70°38' E 029°42'0 0.0
2017-Nov-07 18:30N 70°38' E 029°42'0 0.0
2017-Nov-07 18:00N 70°38' E 029°42'0 0.0
2017-Nov-07 17:30N 70°38' E 029°42'0 0.0
2017-Nov-07 17:00N 70°38' E 029°42'0 0.0
2017-Nov-07 16:30N 70°38' E 029°42'0 0.0
2017-Nov-07 15:58N 70°38' E 029°42'0 0.0
2017-Nov-07 15:28N 70°38' E 029°42'0 0.0
2017-Nov-07 14:58N 70°38' E 029°42'0 0.0
2017-Nov-07 14:28N 70°38' E 029°42'0 0.0
2017-Nov-07 13:58N 70°38' E 029°42'0 0.0
2017-Nov-07 13:28N 70°38' E 029°42'0 0.0
2017-Nov-07 12:58N 70°38' E 029°42'0 0.0
2017-Nov-07 12:28N 70°38' E 029°42'0 0.0
2017-Nov-07 11:58N 70°38' E 029°42'0 0.0
2017-Nov-07 11:28N 70°38' E 029°42'0 0.0
2017-Nov-07 10:58N 70°38' E 029°42'0 0.0
2017-Nov-07 10:28N 70°38' E 029°42'0 0.0
2017-Nov-07 09:55N 70°38' E 029°42'0 0.0
2017-Nov-07 09:28N 70°38' E 029°42'0 0.0
2017-Nov-07 08:58N 70°38' E 029°42'0 0.0
2017-Nov-07 08:28N 70°38' E 029°42'0 0.0
2017-Nov-07 07:58N 70°38' E 029°42'0 0.0
2017-Nov-07 07:28N 70°38' E 029°42'0 0.7
2017-Nov-07 07:00N 70°37' E 029°42'0 0.0
2017-Nov-07 06:30N 70°37' E 029°42'0 0.0
2017-Nov-07 06:00N 70°37' E 029°42'0 0.0
2017-Nov-07 05:29N 70°37' E 029°42'0 0.0
2017-Nov-07 04:59N 70°37' E 029°42'0 0.0
2017-Nov-07 04:27N 70°37' E 029°42'0 0.0
2017-Nov-07 04:00N 70°37' E 029°42'0 0.0
2017-Nov-07 03:25N 70°37' E 029°42'0 0.0
2017-Nov-07 02:58N 70°37' E 029°42'0 0.0
2017-Nov-07 02:28N 70°37' E 029°42'0 0.0
2017-Nov-07 01:58N 70°37' E 029°42'0 0.0
2017-Nov-07 01:28N 70°37' E 029°42'0 0.0
2017-Nov-07 00:59N 70°37' E 029°42'0 0.0
2017-Nov-07 00:29N 70°37' E 029°42'0 0.0
2017-Nov-06 23:56N 70°37' E 029°42'0 0.0
2017-Nov-06 23:30N 70°37' E 029°42'0 0.0
2017-Nov-06 23:00N 70°37' E 029°42'0 0.0
2017-Nov-06 22:30N 70°37' E 029°42'0 0.0
2017-Nov-06 22:00N 70°37' E 029°42'0 0.0
2017-Nov-06 21:30N 70°37' E 029°42'0 0.0
2017-Nov-06 21:00N 70°37' E 029°42'0 0.0
2017-Nov-06 20:30N 70°37' E 029°42'  
Track history (hours):
 
Tides and Currents Weather Stations Pressure Air Temp Water Temp Dewpoint Dewpoint Depression Visibility Wind Speed Wind Dir Waves Ship Positions

Dukat

Last reported at 2017-Nov-16 09:05 UTC. Time now 2017-Dec-12 10:24 UTC.
Position N 70°38' E 029°43'.
Warning: this ship's position is 26 days out of date.

Length 10 m.

Type: Fishing. MMSI: 257143420.

Date/timePositionNaut miles runAvg speedWind from/ knotsBaromVisibWave heightAir tempDewpointWater temp
2017-Nov-16 09:05N 70°38' E 029°43'0 0.0
2017-Nov-16 08:59N 70°38' E 029°43'0 0.0
2017-Nov-16 08:29N 70°38' E 029°43'0 0.0
2017-Nov-16 07:59N 70°38' E 029°43'0 0.0
2017-Nov-16 07:29N 70°38' E 029°43'0 0.0
2017-Nov-16 06:59N 70°38' E 029°43'0 0.0
2017-Nov-16 06:29N 70°38' E 029°43'0 0.1
2017-Nov-16 05:58N 70°38' E 029°43'0 0.0
2017-Nov-16 05:28N 70°38' E 029°43'0 0.0
2017-Nov-16 04:58N 70°38' E 029°43'0 0.0
2017-Nov-16 04:28N 70°38' E 029°43'0 0.0
2017-Nov-16 03:58N 70°38' E 029°43'0 0.0
2017-Nov-16 03:28N 70°38' E 029°43'0 0.0
2017-Nov-16 02:58N 70°38' E 029°43'0 0.0
2017-Nov-16 02:28N 70°38' E 029°43'0 0.0
2017-Nov-16 01:58N 70°38' E 029°43'0 0.0
2017-Nov-16 01:28N 70°38' E 029°43'0 0.0
2017-Nov-16 00:58N 70°38' E 029°43'0 0.0
2017-Nov-16 00:25N 70°38' E 029°43'0 0.0
2017-Nov-15 23:58N 70°38' E 029°43'0 0.0
2017-Nov-15 23:28N 70°38' E 029°43'0 0.0
2017-Nov-15 22:58N 70°38' E 029°43'0 0.0
2017-Nov-15 22:28N 70°38' E 029°43'0 0.0
2017-Nov-15 21:58N 70°38' E 029°43'0 0.0
2017-Nov-15 21:28N 70°38' E 029°43'0 0.0
2017-Nov-15 20:58N 70°38' E 029°43'0 0.0
2017-Nov-15 20:28N 70°38' E 029°43'0 0.0
2017-Nov-15 19:58N 70°38' E 029°43'2 4.6
2017-Nov-15 19:30N 70°39' E 029°48'4 7.8
2017-Nov-15 19:00N 70°42' E 029°56'4 8.0
2017-Nov-15 18:30N 70°45' E 030°04'4 7.5
2017-Nov-15 17:59N 70°47' E 030°13'0 0.2
2017-Nov-15 17:30N 70°47' E 030°14'0 0.9
2017-Nov-15 17:00N 70°48' E 030°13'0 0.6
2017-Nov-15 16:29N 70°48' E 030°12'0 0.9
2017-Nov-15 16:00N 70°48' E 030°11'1 1.1
2017-Nov-15 15:29N 70°48' E 030°09'1 1.1
2017-Nov-15 15:00N 70°49' E 030°08'1 1.1
2017-Nov-15 14:30N 70°49' E 030°06'1 1.2
2017-Nov-15 14:01N 70°49' E 030°05'1 1.0
2017-Nov-15 13:30N 70°49' E 030°03'0 0.9
2017-Nov-15 13:00N 70°50' E 030°02'1 1.2
2017-Nov-15 12:30N 70°50' E 030°01'1 1.4
2017-Nov-15 12:00N 70°50' E 029°59'1 1.4
2017-Nov-15 11:29N 70°51' E 029°57'1 1.6
2017-Nov-15 11:00N 70°51' E 029°55'0 0.2
2017-Nov-15 10:30N 70°51' E 029°54'2 4.5
2017-Nov-15 09:59N 70°48' E 029°53'4 8.1
2017-Nov-15 09:30N 70°44' E 029°52'4 8.0
2017-Nov-15 09:00N 70°41' E 029°50'3 6.9
2017-Nov-15 08:29N 70°38' E 029°43'0 0.0
2017-Nov-15 07:59N 70°38' E 029°43'0 0.0
2017-Nov-15 07:29N 70°38' E 029°43'0 0.0
2017-Nov-15 06:59N 70°38' E 029°43'0 0.0
2017-Nov-15 06:29N 70°38' E 029°43'0 0.0
2017-Nov-15 05:59N 70°38' E 029°43'0 0.0
2017-Nov-15 05:29N 70°38' E 029°43'0 0.0
2017-Nov-15 04:59N 70°38' E 029°43'0 0.0
2017-Nov-15 04:29N 70°38' E 029°43'0 0.0
2017-Nov-15 03:59N 70°38' E 029°43'0 0.0
2017-Nov-15 03:29N 70°38' E 029°43'0 0.0
2017-Nov-15 02:59N 70°38' E 029°43'0 0.0
2017-Nov-15 02:30N 70°38' E 029°43'4 6.9
2017-Nov-15 01:59N 70°40' E 029°51'4 7.8
2017-Nov-15 01:30N 70°43' E 029°58'4 7.6
2017-Nov-15 01:00N 70°45' E 030°07'3 5.5
2017-Nov-15 00:29N 70°47' E 030°14'2 4.5
2017-Nov-14 23:59N 70°48' E 030°08'2 4.3
2017-Nov-14 23:30N 70°49' E 030°02'2 4.3
2017-Nov-14 23:00N 70°50' E 029°57'2 3.1
2017-Nov-14 22:30N 70°51' E 029°52'3 6.3
2017-Nov-14 22:00N 70°47' E 029°52'4 7.6
2017-Nov-14 21:30N 70°44' E 029°51'4 7.6
2017-Nov-14 21:00N 70°40' E 029°50'3 5.8
2017-Nov-14 20:30N 70°38' E 029°43'0 0.0
2017-Nov-14 20:00N 70°38' E 029°43'0 0.4
2017-Nov-14 19:29N 70°38' E 029°44'1 3.0
2017-Nov-14 19:00N 70°39' E 029°47'4 7.8
2017-Nov-14 18:30N 70°42' E 029°55'4 7.6
2017-Nov-14 18:00N 70°44' E 030°04'4 7.9
2017-Nov-14 17:29N 70°46' E 030°14'2 3.1
2017-Nov-14 17:00N 70°47' E 030°19'0 0.9
2017-Nov-14 16:30N 70°46' E 030°20'0 0.8
2017-Nov-14 16:00N 70°46' E 030°21'1 2.7
2017-Nov-14 15:30N 70°47' E 030°18'0 0.4
2017-Nov-14 14:59N 70°47' E 030°18'1 1.3
2017-Nov-14 14:29N 70°47' E 030°17'0 0.9
2017-Nov-14 14:00N 70°48' E 030°16'1 1.0
2017-Nov-14 13:30N 70°48' E 030°14'1 1.2
2017-Nov-14 13:00N 70°48' E 030°13'1 1.3
2017-Nov-14 12:30N 70°48' E 030°11'1 1.1
2017-Nov-14 12:00N 70°49' E 030°10'1 1.3
2017-Nov-14 11:30N 70°49' E 030°08'1 1.3
2017-Nov-14 10:59N 70°49' E 030°06'1 1.3
2017-Nov-14 10:29N 70°50' E 030°04'1 1.1
2017-Nov-14 09:59N 70°50' E 030°03'2 4.5
2017-Nov-14 09:30N 70°48' E 029°59'4 8.0
2017-Nov-14 08:59N 70°44' E 029°53'4 7.7
2017-Nov-14 08:30N 70°41' E 029°50'4 7.0
2017-Nov-14 07:59N 70°38' E 029°43'0 0.0
2017-Nov-14 07:29N 70°38' E 029°43'0 0.0
2017-Nov-14 06:59N 70°38' E 029°43'0 0.0
2017-Nov-14 06:29N 70°38' E 029°43'0 0.0
2017-Nov-14 05:58N 70°38' E 029°43'0 0.0
2017-Nov-14 05:28N 70°38' E 029°43'0 0.0
2017-Nov-14 04:58N 70°38' E 029°43'0 0.0
2017-Nov-14 04:28N 70°38' E 029°43'0 0.0
2017-Nov-14 03:58N 70°38' E 029°43'0 0.0
2017-Nov-14 03:28N 70°38' E 029°43'0 0.0
2017-Nov-14 02:58N 70°38' E 029°43'0 0.0
2017-Nov-14 02:28N 70°38' E 029°43'0 0.0
2017-Nov-14 02:00N 70°38' E 029°43'3 6.6
2017-Nov-14 01:30N 70°40' E 029°50'4 7.7
2017-Nov-14 01:00N 70°43' E 029°58'4 7.6
2017-Nov-14 00:30N 70°44' E 030°09'4 7.7
2017-Nov-14 00:00N 70°46' E 030°20'1 2.1
2017-Nov-13 23:30N 70°47' E 030°18'2 4.3
2017-Nov-13 23:00N 70°48' E 030°12'2 4.4
2017-Nov-13 22:30N 70°49' E 030°06'2 4.5
2017-Nov-13 22:00N 70°50' E 030°00'14 0.7
2017-Nov-13 02:00N 70°38' E 029°43'0 0.0
2017-Nov-13 01:30N 70°38' E 029°43'0 0.0
2017-Nov-13 01:00N 70°38' E 029°43'0 0.0
2017-Nov-13 00:30N 70°38' E 029°43'0 0.0
2017-Nov-13 00:00N 70°38' E 029°43'0 0.0
2017-Nov-12 23:30N 70°38' E 029°43'0 0.0
2017-Nov-12 23:00N 70°38' E 029°43'0 0.8
2017-Nov-12 22:31N 70°38' E 029°44'4 7.9
2017-Nov-12 21:59N 70°41' E 029°52'4 7.8
2017-Nov-12 21:30N 70°44' E 029°60'4 7.7
2017-Nov-12 20:59N 70°47' E 030°08'4 7.6
2017-Nov-12 20:30N 70°49' E 030°17'4 7.0
2017-Nov-12 19:59N 70°52' E 030°24'3 6.7
2017-Nov-12 19:29N 70°54' E 030°32'3 6.8
2017-Nov-12 19:00N 70°56' E 030°39'2 1.5
2017-Nov-12 17:57N 70°57' E 030°43'2 5.4
2017-Nov-12 17:30N 70°55' E 030°39'3 5.3
2017-Nov-12 17:00N 70°53' E 030°34'3 5.4
2017-Nov-12 16:30N 70°51' E 030°30'2 4.9
2017-Nov-12 16:00N 70°49' E 030°24'4 8.4
2017-Nov-12 15:29N 70°47' E 030°13'4 7.9
2017-Nov-12 15:00N 70°44' E 030°04'4 7.9
2017-Nov-12 14:30N 70°42' E 029°55'4 8.0
2017-Nov-12 14:00N 70°39' E 029°47'2 3.2
2017-Nov-12 13:28N 70°38' E 029°43'0 0.0
2017-Nov-12 12:57N 70°38' E 029°43'0 0.0
2017-Nov-12 12:28N 70°38' E 029°43'1 1.4
2017-Nov-12 11:58N 70°37' E 029°42'0 0.0
2017-Nov-12 11:28N 70°37' E 029°42'0 0.0
2017-Nov-12 10:58N 70°37' E 029°42'0 0.0
2017-Nov-12 10:28N 70°37' E 029°42'0 0.0
2017-Nov-12 09:58N 70°37' E 029°42'0 0.0
2017-Nov-12 09:28N 70°37' E 029°42'0 0.0
2017-Nov-12 08:58N 70°37' E 029°42'0 0.0
2017-Nov-12 08:28N 70°37' E 029°42'0 0.0
2017-Nov-12 07:58N 70°37' E 029°42'0 0.0
2017-Nov-12 07:28N 70°37' E 029°42'0 0.6
2017-Nov-12 07:00N 70°37' E 029°42'0 0.4
2017-Nov-12 06:30N 70°38' E 029°42'0 0.0
2017-Nov-12 06:00N 70°38' E 029°42'0 0.0
2017-Nov-12 05:30N 70°38' E 029°42'0 0.0
2017-Nov-12 05:00N 70°38' E 029°42'0 0.0
2017-Nov-12 04:30N 70°38' E 029°42'0 0.0
2017-Nov-12 04:00N 70°38' E 029°42'0 0.0
2017-Nov-12 03:30N 70°38' E 029°42'0 0.0
2017-Nov-12 03:00N 70°38' E 029°42'0 0.0
2017-Nov-12 02:30N 70°38' E 029°42'0 0.0
2017-Nov-12 02:00N 70°38' E 029°42'0 0.0
2017-Nov-12 01:30N 70°38' E 029°42'0 0.0
2017-Nov-12 01:00N 70°38' E 029°42'0 0.0
2017-Nov-12 00:30N 70°38' E 029°42'0 0.0
2017-Nov-12 00:00N 70°38' E 029°42'0 0.0
2017-Nov-11 23:30N 70°38' E 029°42'0 0.0
2017-Nov-11 23:00N 70°38' E 029°42'0 0.0
2017-Nov-11 22:30N 70°38' E 029°42'0 0.0
2017-Nov-11 22:00N 70°38' E 029°42'0 0.0
2017-Nov-11 21:30N 70°38' E 029°42'0 0.0
2017-Nov-11 21:00N 70°38' E 029°42'0 0.0
2017-Nov-11 20:30N 70°38' E 029°42'0 0.0
2017-Nov-11 19:58N 70°38' E 029°42'0 0.0
2017-Nov-11 19:28N 70°38' E 029°42'0 0.0
2017-Nov-11 18:58N 70°38' E 029°42'0 0.0
2017-Nov-11 18:28N 70°38' E 029°42'0 0.0
2017-Nov-11 17:58N 70°38' E 029°42'0 0.0
2017-Nov-11 17:28N 70°38' E 029°42'0 0.0
2017-Nov-11 16:58N 70°38' E 029°42'0 0.0
2017-Nov-11 16:28N 70°38' E 029°42'0 0.8
2017-Nov-11 15:57N 70°38' E 029°43'0 0.0
2017-Nov-11 15:27N 70°38' E 029°43'0 0.0
2017-Nov-11 14:57N 70°38' E 029°43'2 4.8
2017-Nov-11 14:30N 70°39' E 029°48'3 6.8
2017-Nov-11 13:59N 70°42' E 029°54'3 6.1
2017-Nov-11 13:29N 70°44' E 030°01'3 6.2
2017-Nov-11 13:00N 70°45' E 030°09'3 6.3
2017-Nov-11 12:30N 70°47' E 030°18'3 6.1
2017-Nov-11 12:00N 70°48' E 030°26'2 4.5
2017-Nov-11 11:29N 70°50' E 030°31'0 0.5
2017-Nov-11 11:00N 70°50' E 030°31'0 0.3
2017-Nov-11 10:29N 70°50' E 030°30'0 0.7
2017-Nov-11 10:00N 70°50' E 030°31'1 1.3
2017-Nov-11 09:30N 70°50' E 030°33'1 1.1
2017-Nov-11 08:59N 70°51' E 030°34'0 0.8
2017-Nov-11 08:31N 70°51' E 030°35'1 1.1
2017-Nov-11 07:59N 70°52' E 030°36'0 1.0
2017-Nov-11 07:30N 70°52' E 030°37'1 1.2
2017-Nov-11 06:59N 70°53' E 030°37'1 1.1
2017-Nov-11 06:30N 70°53' E 030°38'1 1.3
2017-Nov-11 06:00N 70°54' E 030°39'1 1.1
2017-Nov-11 05:30N 70°54' E 030°40'1 1.2
2017-Nov-11 05:00N 70°55' E 030°41'1 1.3
2017-Nov-11 04:29N 70°55' E 030°42'1 1.2
2017-Nov-11 04:00N 70°56' E 030°43'1 1.2
2017-Nov-11 03:30N 70°56' E 030°44'1 1.0
2017-Nov-11 03:00N 70°56' E 030°45'0 0.0
2017-Nov-10 17:32N 70°56' E 030°46'0 5.5
2017-Nov-10 17:29N 70°56' E 030°46'3 5.6
2017-Nov-10 17:00N 70°54' E 030°40'3 5.6
2017-Nov-10 16:30N 70°52' E 030°35'3 5.2
2017-Nov-10 16:00N 70°50' E 030°30'2 5.0
2017-Nov-10 15:30N 70°49' E 030°22'4 7.9
2017-Nov-10 15:00N 70°48' E 030°11'4 8.1
2017-Nov-10 14:30N 70°45' E 030°03'4 8.3
2017-Nov-10 14:00N 70°42' E 029°54'4 8.3
2017-Nov-10 13:30N 70°39' E 029°47'2 2.9
2017-Nov-10 12:59N 70°38' E 029°43'0 0.2
2017-Nov-10 12:30N 70°38' E 029°43'1 1.0
2017-Nov-10 11:59N 70°38' E 029°44'0 0.0
2017-Nov-10 11:30N 70°38' E 029°44'0 0.0
2017-Nov-10 10:59N 70°38' E 029°44'0 0.0
2017-Nov-10 10:29N 70°38' E 029°44'0 0.0
2017-Nov-10 09:59N 70°38' E 029°44'0 0.0
2017-Nov-10 09:30N 70°38' E 029°44'0 0.0
2017-Nov-10 09:00N 70°38' E 029°44'0 0.0
2017-Nov-10 08:30N 70°38' E 029°44'0 0.0
2017-Nov-10 08:00N 70°38' E 029°44'0 0.0
2017-Nov-10 07:29N 70°38' E 029°44'0 0.0
2017-Nov-10 06:59N 70°38' E 029°44'1 1.9
2017-Nov-10 06:30N 70°38' E 029°42'0 0.0
2017-Nov-10 06:00N 70°38' E 029°42'0 0.0
2017-Nov-10 05:30N 70°38' E 029°42'0 0.0
2017-Nov-10 05:00N 70°38' E 029°42'0 0.0
2017-Nov-10 04:30N 70°38' E 029°42'0 0.0
2017-Nov-10 04:00N 70°38' E 029°42'0 0.0
2017-Nov-10 03:30N 70°38' E 029°42'0 0.0
2017-Nov-10 03:00N 70°38' E 029°42'0 0.0
2017-Nov-10 02:30N 70°38' E 029°42'0 0.0
2017-Nov-10 02:00N 70°38' E 029°42'0 0.0
2017-Nov-10 01:30N 70°38' E 029°42'0 0.0
2017-Nov-10 01:00N 70°38' E 029°42'0 0.0
2017-Nov-10 00:30N 70°38' E 029°42'0 0.0
2017-Nov-10 00:00N 70°38' E 029°42'0 0.0
2017-Nov-09 23:30N 70°38' E 029°42'0 0.0
2017-Nov-09 23:00N 70°38' E 029°42'0 0.0
2017-Nov-09 22:30N 70°38' E 029°42'0 0.0
2017-Nov-09 21:57N 70°38' E 029°42'0 0.0
2017-Nov-09 21:30N 70°38' E 029°42'0 0.0
2017-Nov-09 21:00N 70°38' E 029°42'0 0.0
2017-Nov-09 20:30N 70°38' E 029°42'0 0.0
2017-Nov-09 20:00N 70°38' E 029°42'0 0.0
2017-Nov-09 19:30N 70°38' E 029°42'0 0.0
2017-Nov-09 19:00N 70°38' E 029°42'0 0.0
2017-Nov-09 18:30N 70°38' E 029°42'0 0.0
2017-Nov-09 18:00N 70°38' E 029°42'0 0.0
2017-Nov-09 17:30N 70°38' E 029°42'0 0.0
2017-Nov-09 17:00N 70°38' E 029°42'0 0.0
2017-Nov-09 16:30N 70°38' E 029°42'0 0.0
2017-Nov-09 16:00N 70°38' E 029°42'0 0.0
2017-Nov-09 15:30N 70°38' E 029°42'0 0.0
2017-Nov-09 15:00N 70°38' E 029°42'0 0.0
2017-Nov-09 14:30N 70°38' E 029°42'0 0.0
2017-Nov-09 14:00N 70°38' E 029°42'0 0.0
2017-Nov-09 13:30N 70°38' E 029°42'0 0.0
2017-Nov-09 13:00N 70°38' E 029°42'0 0.0
2017-Nov-09 12:30N 70°38' E 029°42'0 0.0
2017-Nov-09 12:00N 70°38' E 029°42'0 0.0
2017-Nov-09 11:30N 70°38' E 029°42'0 0.0
2017-Nov-09 11:00N 70°38' E 029°42'0 0.0
2017-Nov-09 10:30N 70°38' E 029°42'0 0.0
2017-Nov-09 10:00N 70°38' E 029°42'0 0.0
2017-Nov-09 09:30N 70°38' E 029°42'0 0.0
2017-Nov-09 09:00N 70°38' E 029°42'0 0.0
2017-Nov-09 08:30N 70°38' E 029°42'0 0.0
2017-Nov-09 08:00N 70°38' E 029°42'0 0.0
2017-Nov-09 07:30N 70°38' E 029°42'0 0.0
2017-Nov-09 07:00N 70°38' E 029°42'0 0.0
2017-Nov-09 06:30N 70°38' E 029°42'0 0.0
2017-Nov-09 06:00N 70°38' E 029°42'0 0.0
2017-Nov-09 05:30N 70°38' E 029°42'0 0.0
2017-Nov-09 05:00N 70°38' E 029°42'0 0.0
2017-Nov-09 04:30N 70°38' E 029°42'0 0.0
2017-Nov-09 04:00N 70°38' E 029°42'0 0.0
2017-Nov-09 03:30N 70°38' E 029°42'0 0.0
2017-Nov-09 03:00N 70°38' E 029°42'0 0.0
2017-Nov-09 02:30N 70°38' E 029°42'0 0.0
2017-Nov-09 02:00N 70°38' E 029°42'0 0.0
2017-Nov-09 01:30N 70°38' E 029°42'0 0.0
2017-Nov-09 01:00N 70°38' E 029°42'0 0.0
2017-Nov-09 00:30N 70°38' E 029°42'0 0.0
2017-Nov-09 00:00N 70°38' E 029°42'0 0.0
2017-Nov-08 23:30N 70°38' E 029°42'0 0.0
2017-Nov-08 23:00N 70°38' E 029°42'0 0.0
2017-Nov-08 22:30N 70°38' E 029°42'0 0.0
2017-Nov-08 22:00N 70°38' E 029°42'0 0.0
2017-Nov-08 21:30N 70°38' E 029°42'0 0.0
2017-Nov-08 21:00N 70°38' E 029°42'0 0.0
2017-Nov-08 20:30N 70°38' E 029°42'0 0.0
2017-Nov-08 20:00N 70°38' E 029°42'0 0.0
2017-Nov-08 19:30N 70°38' E 029°42'0 0.0
2017-Nov-08 19:00N 70°38' E 029°42'0 0.0
2017-Nov-08 18:30N 70°38' E 029°42'0 0.0
2017-Nov-08 18:00N 70°38' E 029°42'0 0.0
2017-Nov-08 17:30N 70°38' E 029°42'0 0.0
2017-Nov-08 17:00N 70°38' E 029°42'0 0.0
2017-Nov-08 16:30N 70°38' E 029°42'0 0.0
2017-Nov-08 16:00N 70°38' E 029°42'0 0.0
2017-Nov-08 15:30N 70°38' E 029°42'0 0.0
2017-Nov-08 15:00N 70°38' E 029°42'0 0.0
2017-Nov-08 14:30N 70°38' E 029°42'0 0.0
2017-Nov-08 14:00N 70°38' E 029°42'0 0.0
2017-Nov-08 13:30N 70°38' E 029°42'0 0.0
2017-Nov-08 13:00N 70°38' E 029°42'0 0.0
2017-Nov-08 12:30N 70°38' E 029°42'0 0.0
2017-Nov-08 12:00N 70°38' E 029°42'0 0.0
2017-Nov-08 11:27N 70°38' E 029°42'0 0.0
2017-Nov-08 11:00N 70°38' E 029°42'0 0.0
2017-Nov-08 10:30N 70°38' E 029°42'0 0.0
2017-Nov-08 10:00N 70°38' E 029°42'0 0.0
2017-Nov-08 09:30N 70°38' E 029°42'0 0.7
2017-Nov-08 09:00N 70°37' E 029°43'3 6.8
2017-Nov-08 08:30N 70°40' E 029°50'0 0.3
2017-Nov-08 08:00N 70°40' E 029°50'2 3.5
2017-Nov-08 07:31N 70°39' E 029°47'2 3.6
2017-Nov-08 07:00N 70°38' E 029°42'0 0.0
2017-Nov-08 06:30N 70°38' E 029°42'0 0.0
2017-Nov-08 06:00N 70°38' E 029°42'0 0.0
2017-Nov-08 05:30N 70°38' E 029°42'0 0.0
2017-Nov-08 05:00N 70°38' E 029°42'0 0.0
2017-Nov-08 04:30N 70°38' E 029°42'0 0.0
2017-Nov-08 04:00N 70°38' E 029°42'0 0.0
2017-Nov-08 03:27N 70°38' E 029°42'0 0.0
2017-Nov-08 03:00N 70°38' E 029°42'0 0.0
2017-Nov-08 02:27N 70°38' E 029°42'0 0.0
2017-Nov-08 02:00N 70°38' E 029°42'0 0.0
2017-Nov-08 01:30N 70°38' E 029°42'0 0.0
2017-Nov-08 01:00N 70°38' E 029°42'0 0.0
2017-Nov-08 00:30N 70°38' E 029°42'0 0.0
2017-Nov-08 00:00N 70°38' E 029°42'0 0.0
2017-Nov-07 23:30N 70°38' E 029°42'0 0.0
2017-Nov-07 23:00N 70°38' E 029°42'0 0.0
2017-Nov-07 22:30N 70°38' E 029°42'0 0.0
2017-Nov-07 22:00N 70°38' E 029°42'0 0.0
2017-Nov-07 21:30N 70°38' E 029°42'0 0.0
2017-Nov-07 21:00N 70°38' E 029°42'0 0.0
2017-Nov-07 20:30N 70°38' E 029°42'0 0.0
2017-Nov-07 20:00N 70°38' E 029°42'0 0.0
2017-Nov-07 19:30N 70°38' E 029°42'0 0.0
2017-Nov-07 18:57N 70°38' E 029°42'0 0.0
2017-Nov-07 18:30N 70°38' E 029°42'0 0.0
2017-Nov-07 18:00N 70°38' E 029°42'0 0.0
2017-Nov-07 17:30N 70°38' E 029°42'0 0.0
2017-Nov-07 17:00N 70°38' E 029°42'0 0.0
2017-Nov-07 16:30N 70°38' E 029°42'0 0.0
2017-Nov-07 15:58N 70°38' E 029°42'0 0.0
2017-Nov-07 15:28N 70°38' E 029°42'0 0.0
2017-Nov-07 14:58N 70°38' E 029°42'0 0.0
2017-Nov-07 14:28N 70°38' E 029°42'0 0.0
2017-Nov-07 13:58N 70°38' E 029°42'0 0.0
2017-Nov-07 13:28N 70°38' E 029°42'0 0.0
2017-Nov-07 12:58N 70°38' E 029°42'0 0.0
2017-Nov-07 12:28N 70°38' E 029°42'0 0.0
2017-Nov-07 11:58N 70°38' E 029°42'0 0.0
2017-Nov-07 11:28N 70°38' E 029°42'0 0.0
2017-Nov-07 10:58N 70°38' E 029°42'0 0.0
2017-Nov-07 10:28N 70°38' E 029°42'0 0.0
2017-Nov-07 09:55N 70°38' E 029°42'0 0.0
2017-Nov-07 09:28N 70°38' E 029°42'0 0.0
2017-Nov-07 08:58N 70°38' E 029°42'0 0.0
2017-Nov-07 08:28N 70°38' E 029°42'0 0.0
2017-Nov-07 07:58N 70°38' E 029°42'0 0.0
2017-Nov-07 07:28N 70°38' E 029°42'0 0.7
2017-Nov-07 07:00N 70°37' E 029°42'0 0.0
2017-Nov-07 06:30N 70°37' E 029°42'0 0.0
2017-Nov-07 06:00N 70°37' E 029°42'0 0.0
2017-Nov-07 05:29N 70°37' E 029°42'0 0.0
2017-Nov-07 04:59N 70°37' E 029°42'0 0.0
2017-Nov-07 04:27N 70°37' E 029°42'0 0.0
2017-Nov-07 04:00N 70°37' E 029°42'0 0.0
2017-Nov-07 03:25N 70°37' E 029°42'0 0.0
2017-Nov-07 02:58N 70°37' E 029°42'0 0.0
2017-Nov-07 02:28N 70°37' E 029°42'0 0.0
2017-Nov-07 01:58N 70°37' E 029°42'0 0.0
2017-Nov-07 01:28N 70°37' E 029°42'0 0.0
2017-Nov-07 00:59N 70°37' E 029°42'0 0.0
2017-Nov-07 00:29N 70°37' E 029°42'0 0.0
2017-Nov-06 23:56N 70°37' E 029°42'0 0.0
2017-Nov-06 23:30N 70°37' E 029°42'0 0.0
2017-Nov-06 23:00N 70°37' E 029°42'0 0.0
2017-Nov-06 22:30N 70°37' E 029°42'0 0.0
2017-Nov-06 22:00N 70°37' E 029°42'0 0.0
2017-Nov-06 21:30N 70°37' E 029°42'0 0.0
2017-Nov-06 21:00N 70°37' E 029°42'0 0.0
2017-Nov-06 20:30N 70°37' E 029°42'  

Dump ship's entire track history